KDPA/DPA METAR and TAF weather

Enter ICAO airport designator
Station Type Date Time Source
KDPA METAR 2022/06/25 22:52 UTC NOAA

KDPA 252252Z 19007KT 10SM OVC038 25/18 A2992 RMK AO2 SLP127 T02500178


Station Type Date Time Source
KDPA Decoded METAR 2022/06/25 22:52 UTC NOAA

CHICAGO/WEST CH DUPAGE, IL, United States (KDPA) 41-54N 88-15W 230M
Jun 25, 2022 - 06:52 PM EDT / 2022.06.25 2252 UTC
Wind: from the S (190 degrees) at 8 MPH (7 KT):0
Visibility: 10 mile(s):0
Sky conditions: overcast
Temperature: 77.0 F (25.0 C)
Dew Point: 64.0 F (17.8 C)
Relative Humidity: 64%
Pressure (altimeter): 29.92 in. Hg (1013 hPa)
ob: KDPA 252252Z 19007KT 10SM OVC038 25/18 A2992 RMK AO2 SLP127 T02500178
cycle: 23

Station Type Date Time Source
KDPA TAF 2022/06/25 21:06 UTC NOAA

TAF
AMD KDPA 252105Z 2521/2618 19012G18KT P6SM BKN040
FM260000 21010KT P6SM SCT050 BKN120
TEMPO 2601/2603 4SM -SHRA BKN040
FM260600 29010KT P6SM SCT030 BKN200
FM261400 29012G23KT P6SM SCT300

Example: see airport list